Flight Track Log - Related Links

Times and Time Zones

All times are in EDT time to prevent confusion due to time zone crossing. See the ASH3770 flight status page for this flight to view local times or setup timezone preferences in your user account.

Time Position Orientation Groundspeed Altitude Reporting Facility
EDT Latitude Longitude Course Direction KTS MPH feet Rate Location/Type
Sun 02:55:49 PM 41.9667 -87.8667 172° South 188 216 2,400  Level Chicago TRACON
Sun 02:56:46 PM 41.9300 -87.8142 166° South 212 244 4,600 2,288 Climbing Chicago Center
Sun 02:57:00 PM 41.8858 -87.8453 166° South  Level FlightAware Approximate
Sun 02:57:47 PM 41.8550 -87.8044 174° South 273 314 6,900  Level Chicago Center
Sun 02:59:00 PM 41.5306 -87.5753 153° Southeast  Level Estimated
Sun 02:59:51 PM 41.6967 -87.7606 168° South 306 352 12,900  Level Chicago Center
Sun 03:00:00 PM 41.4403 -87.5096 166° South  Level Estimated
Sun 03:00:53 PM 41.6161 -87.7050 153° Southeast 329 379 14,300  Level Chicago Center
Sun 03:01:00 PM 41.3638 -87.4542 172° South  Level Estimated
Sun 03:02:58 PM 41.4164 -87.5722 153° Southeast 368 423 19,400  Level Chicago Center
Sun 03:04:00 PM 41.3131 -87.5361 165° South 386 444 21,300 1,694 Climbing Chicago Center
Sun 03:05:02 PM 41.2142 -87.4789 156° South 389 448 22,900 823 Climbing Chicago Center
Sun 03:06:04 PM 41.1053 -87.4172 157° South 421 484 23,000 48 Climbing Chicago Center
Sun 03:07:06 PM 40.9931 -87.3525 156° South 439 505 23,000  Level Chicago Center
Sun 03:08:08 PM 40.8789 -87.2853 156° South 450 518 23,000 -484 Level Chicago Center
Sun 03:09:10 PM 40.7406 -87.2061 157° South 454 522 22,000 -1,452 Descending Chicago Center
Sun 03:10:12 PM 40.6306 -87.1436 157° South 436 502 20,000 -1,935 Descending Chicago Center
Sun 03:11:14 PM 40.5322 -87.0878 157° South 419 482 18,000 -1,935 Descending Chicago Center
Sun 03:12:16 PM 40.4275 -87.0264 156° South 414 476 16,000 -2,146 Descending Chicago Center
Sun 03:13:17 PM 40.3006 -86.9564 157° South 413 475 13,600 -1,415 Descending Chicago Center
Sun 03:14:19 PM 40.1986 -86.8981 156° South 401 461 13,100 -242 Descending Chicago Center
Sun 03:15:21 PM 40.1161 -86.8056 139° Southeast 395 455 13,100 -484 Level Chicago Center
Sun 03:16:23 PM 40.0436 -86.6997 132° Southeast 393 452 12,100 -1,250 Descending Chicago Center
Sun 03:17:21 PM 39.9711 -86.5942 132° Southeast 389 448 10,600 -1,050 Descending Indianapolis Center
Sun 03:18:23 PM 39.9069 -86.5025 132° Southeast 352 405 10,000 -1,016 Descending Indianapolis Center
Sun 03:19:25 PM 39.8411 -86.4656 157° South 300 345 8,500 -1,742 Descending Indianapolis Center
Sun 03:20:27 PM 39.7567 -86.5144 204° Southwest 287 330 6,400 -1,839 Descending Indianapolis Center
Sun 03:21:29 PM 39.6931 -86.5694 214° Southwest 280 322 4,700 -1,610 Descending Indianapolis Center
Sun 03:22:30 PM 39.6236 -86.6025 200° South 275 316 3,100 -780 Descending Indianapolis Center
Sun 03:23:32 PM 39.5614 -86.5728 160° South 254 292 3,100  Level Indianapolis Center
Sun 03:24:34 PM 39.5339 -86.5264 128° Southeast 217 250 3,100  Level Indianapolis Center
Sun 03:25:36 PM 39.5747 -86.4886 35° Northeast 192 221 3,100 -49 Level Indianapolis Center
Sun 03:26:37 PM 39.6181 -86.4336 44° Northeast 185 213 3,000 -98 Descending Indianapolis Center

Login

Don't have an account? Register now (free) for customized features, flight alerts, and more!